Portada
METAR-TAF:

METAR-TAF

Aeroports :

Edward F. Knapp State Airport

Barre-Montpelier, Vermont, Estats Units d'Amèrica

latitud: 44-12-17N, longitud: 072-33-58W, altitud: 355 m

Observació

L'informe es va fer fa 1 hora i 0 minuts, a les 05:51 UTC
Vent calma
Temperatura -7°C
Humitat 93%
Pressió 1027 hPa
Visibilitat: 16.1 km
Cel clar

METAR: KMPV 310551Z AUTO 00000KT 10SM CLR M07/M08 A3032 RMK AO2 SLP284 T10721083 11022 21078 52022

Hora: 02:51 (06:51 UTC)

Pronòstic

L'informe es va fer fa 1 hora i 31 minuts, a les 05:20 UTC
Pronòstic vàlid del 31 a les 06 UTC al 01 a les 06 UTC
Vent kt del Nord
Visibilitat: 10 km
Escasses núvols a una alçada de 25000 ft
A partir de les 31 a les 1600 UTC
Vent 6 kt del Sud
Visibilitat: 10 km
Escasses núvols a una alçada de 25000 ft

TAF: KMPV 310520Z 3106/0106 00000KT P6SM FEW250 FM311600 18006KT P6SM FEW250

Observacions i pronòstics meteorològics de més de 4000 aeroports (METAR i TAF).

Les estacions disponibles són els punts grocs i vermells al mapa.

Posi el ratolí al punt desitjat per veure el nom de l'estació.

Feu clic per veure les observacions i els pronòstics meteorològics.

Per canviar el mapa: feu clic els botons verds amb una creu de color negre per apropar; al botó verd amb un guió per allunyar la imatge; o en les fletxes verdes per a mapes adjacents.


METAR-TAF: